sensor_id;sensor_type;location;lat;lon;timestamp;temperature;humidity
6496;DHT22;3281;47.658;9.166;2023-02-20T00:01:55;9.40;1.00
6496;DHT22;3281;47.658;9.166;2023-02-20T00:04:22;9.30;1.00
6496;DHT22;3281;47.658;9.166;2023-02-20T00:06:49;9.30;1.00
6496;DHT22;3281;47.658;9.166;2023-02-20T00:09:16;9.20;1.00
6496;DHT22;3281;47.658;9.166;2023-02-20T00:11:42;9.20;1.00
6496;DHT22;3281;47.658;9.166;2023-02-20T00:14:09;9.20;1.00
6496;DHT22;3281;47.658;9.166;2023-02-20T00:16:36;9.10;1.00
6496;DHT22;3281;47.658;9.166;2023-02-20T00:19:04;9.20;1.00
6496;DHT22;3281;47.658;9.166;2023-02-20T00:21:31;9.20;1.00
6496;DHT22;3281;47.658;9.166;2023-02-20T00:23:57;9.30;1.00
6496;DHT22;3281;47.658;9.166;2023-02-20T00:26:24;9.30;1.00
6496;DHT22;3281;47.658;9.166;2023-02-20T00:28:51;9.30;1.00
6496;DHT22;3281;47.658;9.166;2023-02-20T00:31:18;9.20;1.00
6496;DHT22;3281;47.658;9.166;2023-02-20T00:33:44;9.20;1.00
6496;DHT22;3281;47.658;9.166;2023-02-20T00:36:17;9.30;1.00
6496;DHT22;3281;47.658;9.166;2023-02-20T00:38:44;9.30;1.00
6496;DHT22;3281;47.658;9.166;2023-02-20T00:41:12;9.30;1.00
6496;DHT22;3281;47.658;9.166;2023-02-20T00:43:40;9.30;1.00
6496;DHT22;3281;47.658;9.166;2023-02-20T00:46:10;9.30;1.00
6496;DHT22;3281;47.658;9.166;2023-02-20T00:48:37;9.30;1.00
6496;DHT22;3281;47.658;9.166;2023-02-20T00:51:03;9.30;1.00
6496;DHT22;3281;47.658;9.166;2023-02-20T00:53:32;9.40;1.00
6496;DHT22;3281;47.658;9.166;2023-02-20T00:55:58;9.40;1.00
6496;DHT22;3281;47.658;9.166;2023-02-20T00:58:25;9.20;1.00
6496;DHT22;3281;47.658;9.166;2023-02-20T01:00:52;9.30;1.00
6496;DHT22;3281;47.658;9.166;2023-02-20T01:03:19;9.20;1.00
6496;DHT22;3281;47.658;9.166;2023-02-20T01:05:45;9.20;1.00
6496;DHT22;3281;47.658;9.166;2023-02-20T01:08:12;9.30;1.00
6496;DHT22;3281;47.658;9.166;2023-02-20T01:10:40;9.20;1.00
6496;DHT22;3281;47.658;9.166;2023-02-20T01:13:07;9.20;1.00
6496;DHT22;3281;47.658;9.166;2023-02-20T01:15:33;9.20;1.00
6496;DHT22;3281;47.658;9.166;2023-02-20T01:18:00;9.20;1.00
6496;DHT22;3281;47.658;9.166;2023-02-20T01:20:27;9.20;1.00
6496;DHT22;3281;47.658;9.166;2023-02-20T01:22:54;9.10;1.00
6496;DHT22;3281;47.658;9.166;2023-02-20T01:25:20;9.10;1.00
6496;DHT22;3281;47.658;9.166;2023-02-20T01:27:49;9.20;1.00
6496;DHT22;3281;47.658;9.166;2023-02-20T01:30:16;9.10;1.00
6496;DHT22;3281;47.658;9.166;2023-02-20T01:32:43;9.10;1.00
6496;DHT22;3281;47.658;9.166;2023-02-20T01:35:10;9.00;1.00
6496;DHT22;3281;47.658;9.166;2023-02-20T01:37:37;9.10;1.00
6496;DHT22;3281;47.658;9.166;2023-02-20T01:40:05;9.10;1.00
6496;DHT22;3281;47.658;9.166;2023-02-20T01:42:33;9.10;1.00
6496;DHT22;3281;47.658;9.166;2023-02-20T01:45:26;9.10;1.00
6496;DHT22;3281;47.658;9.166;2023-02-20T01:47:55;9.10;1.00
6496;DHT22;3281;47.658;9.166;2023-02-20T01:50:26;8.90;1.00
6496;DHT22;3281;47.658;9.166;2023-02-20T01:52:58;8.90;1.00
6496;DHT22;3281;47.658;9.166;2023-02-20T01:55:28;8.80;1.00
6496;DHT22;3281;47.658;9.166;2023-02-20T01:57:59;8.80;1.00
6496;DHT22;3281;47.658;9.166;2023-02-20T02:00:28;8.80;1.00
6496;DHT22;3281;47.658;9.166;2023-02-20T02:02:57;8.80;1.00
6496;DHT22;3281;47.658;9.166;2023-02-20T02:05:27;8.80;1.00
6496;DHT22;3281;47.658;9.166;2023-02-20T02:07:55;8.70;1.00
6496;DHT22;3281;47.658;9.166;2023-02-20T02:10:25;8.60;1.00
6496;DHT22;3281;47.658;9.166;2023-02-20T02:12:54;8.50;1.00
6496;DHT22;3281;47.658;9.166;2023-02-20T02:15:22;8.40;1.00
6496;DHT22;3281;47.658;9.166;2023-02-20T02:18:12;8.40;1.00
6496;DHT22;3281;47.658;9.166;2023-02-20T02:21:06;8.30;1.00
6496;DHT22;3281;47.658;9.166;2023-02-20T02:33:47;8.10;1.00
6496;DHT22;3281;47.658;9.166;2023-02-20T02:36:40;8.00;1.00
6496;DHT22;3281;47.658;9.166;2023-02-20T02:39:16;8.00;1.00
6496;DHT22;3281;47.658;9.166;2023-02-20T02:41:51;8.10;1.00
6496;DHT22;3281;47.658;9.166;2023-02-20T02:44:23;8.00;1.00
6496;DHT22;3281;47.658;9.166;2023-02-20T02:46:56;7.90;1.00
6496;DHT22;3281;47.658;9.166;2023-02-20T02:49:28;7.80;1.00
6496;DHT22;3281;47.658;9.166;2023-02-20T02:51:59;7.90;1.00
6496;DHT22;3281;47.658;9.166;2023-02-20T02:54:27;8.00;1.00
6496;DHT22;3281;47.658;9.166;2023-02-20T02:57:19;7.80;1.00
6496;DHT22;3281;47.658;9.166;2023-02-20T02:59:47;8.00;1.00
6496;DHT22;3281;47.658;9.166;2023-02-20T03:02:16;8.00;1.00
6496;DHT22;3281;47.658;9.166;2023-02-20T03:04:46;8.10;1.00
6496;DHT22;3281;47.658;9.166;2023-02-20T03:07:17;8.10;1.00
6496;DHT22;3281;47.658;9.166;2023-02-20T03:09:49;8.00;1.00
6496;DHT22;3281;47.658;9.166;2023-02-20T03:12:18;8.00;1.00
6496;DHT22;3281;47.658;9.166;2023-02-20T03:14:51;7.80;1.00
6496;DHT22;3281;47.658;9.166;2023-02-20T03:17:38;7.70;1.00
6496;DHT22;3281;47.658;9.166;2023-02-20T03:20:10;7.60;1.00
6496;DHT22;3281;47.658;9.166;2023-02-20T03:22:42;7.40;1.00
6496;DHT22;3281;47.658;9.166;2023-02-20T03:25:14;7.30;1.00
6496;DHT22;3281;47.658;9.166;2023-02-20T03:27:45;7.20;1.00
6496;DHT22;3281;47.658;9.166;2023-02-20T03:30:16;7.20;1.00
6496;DHT22;3281;47.658;9.166;2023-02-20T03:32:46;7.10;1.00
6496;DHT22;3281;47.658;9.166;2023-02-20T03:35:35;7.10;1.00
6496;DHT22;3281;47.658;9.166;2023-02-20T03:38:23;6.90;1.00
6496;DHT22;3281;47.658;9.166;2023-02-20T03:41:10;6.90;1.00
6496;DHT22;3281;47.658;9.166;2023-02-20T03:43:55;6.70;1.00
6496;DHT22;3281;47.658;9.166;2023-02-20T03:46:25;6.60;1.00
6496;DHT22;3281;47.658;9.166;2023-02-20T03:48:55;6.60;1.00
6496;DHT22;3281;47.658;9.166;2023-02-20T03:51:24;6.60;1.00
6496;DHT22;3281;47.658;9.166;2023-02-20T03:54:10;6.60;1.00
6496;DHT22;3281;47.658;9.166;2023-02-20T03:56:40;6.50;1.00
6496;DHT22;3281;47.658;9.166;2023-02-20T03:59:12;6.50;1.00
6496;DHT22;3281;47.658;9.166;2023-02-20T04:01:41;6.40;1.00
6496;DHT22;3281;47.658;9.166;2023-02-20T04:04:13;6.30;1.00
6496;DHT22;3281;47.658;9.166;2023-02-20T04:06:43;6.40;1.00
6496;DHT22;3281;47.658;9.166;2023-02-20T04:09:16;6.90;1.00
6496;DHT22;3281;47.658;9.166;2023-02-20T04:11:47;6.80;1.00
6496;DHT22;3281;47.658;9.166;2023-02-20T04:14:17;6.60;1.00
6496;DHT22;3281;47.658;9.166;2023-02-20T04:16:48;6.50;1.00
6496;DHT22;3281;47.658;9.166;2023-02-20T04:19:16;6.50;1.00
6496;DHT22;3281;47.658;9.166;2023-02-20T04:21:47;6.50;1.00
6496;DHT22;3281;47.658;9.166;2023-02-20T04:24:19;6.40;1.00
6496;DHT22;3281;47.658;9.166;2023-02-20T04:26:46;6.40;1.00
6496;DHT22;3281;47.658;9.166;2023-02-20T04:29:13;6.40;1.00
6496;DHT22;3281;47.658;9.166;2023-02-20T04:31:40;6.40;1.00
6496;DHT22;3281;47.658;9.166;2023-02-20T04:34:07;6.30;1.00
6496;DHT22;3281;47.658;9.166;2023-02-20T04:36:33;6.40;1.00
6496;DHT22;3281;47.658;9.166;2023-02-20T04:39:00;6.40;1.00
6496;DHT22;3281;47.658;9.166;2023-02-20T04:41:28;6.40;1.00
6496;DHT22;3281;47.658;9.166;2023-02-20T04:43:55;6.50;1.00
6496;DHT22;3281;47.658;9.166;2023-02-20T04:46:35;6.50;1.00
6496;DHT22;3281;47.658;9.166;2023-02-20T04:49:02;6.40;1.00
6496;DHT22;3281;47.658;9.166;2023-02-20T04:51:29;6.40;1.00
6496;DHT22;3281;47.658;9.166;2023-02-20T04:53:55;6.40;1.00
6496;DHT22;3281;47.658;9.166;2023-02-20T04:56:22;6.20;1.00
6496;DHT22;3281;47.658;9.166;2023-02-20T04:58:50;6.10;1.00
6496;DHT22;3281;47.658;9.166;2023-02-20T05:01:17;6.10;1.00
6496;DHT22;3281;47.658;9.166;2023-02-20T05:03:44;5.80;1.00
6496;DHT22;3281;47.658;9.166;2023-02-20T05:06:11;5.80;1.00
6496;DHT22;3281;47.658;9.166;2023-02-20T05:08:37;5.80;1.00
6496;DHT22;3281;47.658;9.166;2023-02-20T05:11:04;5.70;1.00
6496;DHT22;3281;47.658;9.166;2023-02-20T05:13:31;5.70;1.00
6496;DHT22;3281;47.658;9.166;2023-02-20T05:15:59;5.70;1.00
6496;DHT22;3281;47.658;9.166;2023-02-20T05:18:27;5.70;1.00
6496;DHT22;3281;47.658;9.166;2023-02-20T05:20:54;5.60;1.00
6496;DHT22;3281;47.658;9.166;2023-02-20T05:23:38;5.60;1.00
6496;DHT22;3281;47.658;9.166;2023-02-20T05:26:08;5.60;1.00
6496;DHT22;3281;47.658;9.166;2023-02-20T05:28:35;5.70;1.00
6496;DHT22;3281;47.658;9.166;2023-02-20T05:31:03;5.60;1.00
6496;DHT22;3281;47.658;9.166;2023-02-20T05:33:29;5.60;1.00
6496;DHT22;3281;47.658;9.166;2023-02-20T05:35:56;5.60;1.00
6496;DHT22;3281;47.658;9.166;2023-02-20T05:38:23;5.50;1.00
6496;DHT22;3281;47.658;9.166;2023-02-20T05:40:49;5.50;1.00
6496;DHT22;3281;47.658;9.166;2023-02-20T05:43:17;5.50;1.00
6496;DHT22;3281;47.658;9.166;2023-02-20T05:45:44;5.50;1.00
6496;DHT22;3281;47.658;9.166;2023-02-20T05:48:12;5.40;1.00
6496;DHT22;3281;47.658;9.166;2023-02-20T05:50:38;5.20;1.00
6496;DHT22;3281;47.658;9.166;2023-02-20T05:53:05;5.20;1.00
6496;DHT22;3281;47.658;9.166;2023-02-20T05:55:32;5.20;1.00
6496;DHT22;3281;47.658;9.166;2023-02-20T05:57:59;5.10;1.00
6496;DHT22;3281;47.658;9.166;2023-02-20T06:00:25;5.10;1.00
6496;DHT22;3281;47.658;9.166;2023-02-20T06:02:52;5.20;1.00
6496;DHT22;3281;47.658;9.166;2023-02-20T06:05:20;5.20;1.00
6496;DHT22;3281;47.658;9.166;2023-02-20T06:07:49;5.10;1.00
6496;DHT22;3281;47.658;9.166;2023-02-20T06:10:17;5.20;1.00
6496;DHT22;3281;47.658;9.166;2023-02-20T06:12:45;5.10;1.00
6496;DHT22;3281;47.658;9.166;2023-02-20T06:15:11;5.20;1.00
6496;DHT22;3281;47.658;9.166;2023-02-20T06:17:38;5.20;1.00
6496;DHT22;3281;47.658;9.166;2023-02-20T06:20:05;5.20;1.00
6496;DHT22;3281;47.658;9.166;2023-02-20T06:22:34;5.00;1.00
6496;DHT22;3281;47.658;9.166;2023-02-20T06:25:00;4.90;1.00
6496;DHT22;3281;47.658;9.166;2023-02-20T06:27:27;4.90;1.00
6496;DHT22;3281;47.658;9.166;2023-02-20T06:29:54;5.00;1.00
6496;DHT22;3281;47.658;9.166;2023-02-20T06:32:20;5.00;1.00
6496;DHT22;3281;47.658;9.166;2023-02-20T06:34:47;5.00;1.00
6496;DHT22;3281;47.658;9.166;2023-02-20T06:37:14;5.10;1.00
6496;DHT22;3281;47.658;9.166;2023-02-20T06:39:42;5.00;1.00
6496;DHT22;3281;47.658;9.166;2023-02-20T06:42:10;5.00;1.00
6496;DHT22;3281;47.658;9.166;2023-02-20T06:44:37;5.00;1.00
6496;DHT22;3281;47.658;9.166;2023-02-20T06:47:03;5.10;1.00
6496;DHT22;3281;47.658;9.166;2023-02-20T06:49:33;5.10;1.00
6496;DHT22;3281;47.658;9.166;2023-02-20T06:52:00;5.20;1.00
6496;DHT22;3281;47.658;9.166;2023-02-20T06:54:26;5.30;1.00
6496;DHT22;3281;47.658;9.166;2023-02-20T06:56:54;5.30;1.00
6496;DHT22;3281;47.658;9.166;2023-02-20T06:59:22;5.30;1.00
6496;DHT22;3281;47.658;9.166;2023-02-20T07:01:49;5.30;1.00
6496;DHT22;3281;47.658;9.166;2023-02-20T07:04:17;5.20;1.00
6496;DHT22;3281;47.658;9.166;2023-02-20T07:06:44;5.20;1.00
6496;DHT22;3281;47.658;9.166;2023-02-20T07:09:11;5.10;1.00
6496;DHT22;3281;47.658;9.166;2023-02-20T07:11:40;5.00;1.00
6496;DHT22;3281;47.658;9.166;2023-02-20T07:14:08;5.00;1.00
6496;DHT22;3281;47.658;9.166;2023-02-20T07:16:35;5.10;1.00
6496;DHT22;3281;47.658;9.166;2023-02-20T07:19:02;5.20;1.00
6496;DHT22;3281;47.658;9.166;2023-02-20T07:21:28;5.30;1.00
6496;DHT22;3281;47.658;9.166;2023-02-20T07:23:55;5.40;1.00
6496;DHT22;3281;47.658;9.166;2023-02-20T07:26:23;5.40;1.00
6496;DHT22;3281;47.658;9.166;2023-02-20T07:28:51;5.40;1.00
6496;DHT22;3281;47.658;9.166;2023-02-20T07:31:19;5.50;1.00
6496;DHT22;3281;47.658;9.166;2023-02-20T07:33:46;5.70;1.00
6496;DHT22;3281;47.658;9.166;2023-02-20T07:36:13;6.00;1.00
6496;DHT22;3281;47.658;9.166;2023-02-20T07:38:41;6.10;1.00
6496;DHT22;3281;47.658;9.166;2023-02-20T07:41:08;6.20;1.00
6496;DHT22;3281;47.658;9.166;2023-02-20T07:43:35;6.20;1.00
6496;DHT22;3281;47.658;9.166;2023-02-20T07:46:02;6.10;1.00
6496;DHT22;3281;47.658;9.166;2023-02-20T07:48:30;6.20;1.00
6496;DHT22;3281;47.658;9.166;2023-02-20T07:50:59;6.40;1.00
6496;DHT22;3281;47.658;9.166;2023-02-20T07:53:25;6.50;1.00
6496;DHT22;3281;47.658;9.166;2023-02-20T07:55:52;6.60;1.00
6496;DHT22;3281;47.658;9.166;2023-02-20T07:58:19;6.70;1.00
6496;DHT22;3281;47.658;9.166;2023-02-20T08:00:46;6.80;1.00
6496;DHT22;3281;47.658;9.166;2023-02-20T08:03:12;7.10;1.00
6496;DHT22;3281;47.658;9.166;2023-02-20T08:05:41;7.10;1.00
6496;DHT22;3281;47.658;9.166;2023-02-20T08:08:07;7.20;1.00
6496;DHT22;3281;47.658;9.166;2023-02-20T08:10:34;7.30;1.00
6496;DHT22;3281;47.658;9.166;2023-02-20T08:13:01;7.50;1.00
6496;DHT22;3281;47.658;9.166;2023-02-20T08:15:27;7.50;1.00
6496;DHT22;3281;47.658;9.166;2023-02-20T08:17:54;7.70;1.00
6496;DHT22;3281;47.658;9.166;2023-02-20T08:20:21;7.60;1.00
6496;DHT22;3281;47.658;9.166;2023-02-20T08:22:49;7.60;1.00
6496;DHT22;3281;47.658;9.166;2023-02-20T08:25:16;7.50;1.00
6496;DHT22;3281;47.658;9.166;2023-02-20T08:27:45;7.60;1.00
6496;DHT22;3281;47.658;9.166;2023-02-20T08:30:14;7.60;1.00
6496;DHT22;3281;47.658;9.166;2023-02-20T08:32:41;7.70;1.00
6496;DHT22;3281;47.658;9.166;2023-02-20T08:35:08;7.80;1.00
6496;DHT22;3281;47.658;9.166;2023-02-20T08:37:35;7.90;1.00
6496;DHT22;3281;47.658;9.166;2023-02-20T08:40:03;8.00;1.00
6496;DHT22;3281;47.658;9.166;2023-02-20T08:42:33;8.20;1.00
6496;DHT22;3281;47.658;9.166;2023-02-20T08:44:59;8.40;1.00
6496;DHT22;3281;47.658;9.166;2023-02-20T08:47:26;8.50;1.00
6496;DHT22;3281;47.658;9.166;2023-02-20T08:49:53;8.60;1.00
6496;DHT22;3281;47.658;9.166;2023-02-20T08:52:20;8.60;1.00
6496;DHT22;3281;47.658;9.166;2023-02-20T08:54:47;8.80;1.00
6496;DHT22;3281;47.658;9.166;2023-02-20T08:57:16;9.00;1.00
6496;DHT22;3281;47.658;9.166;2023-02-20T08:59:43;9.20;1.00
6496;DHT22;3281;47.658;9.166;2023-02-20T09:02:16;9.40;1.00
6496;DHT22;3281;47.658;9.166;2023-02-20T09:04:43;9.50;1.00
6496;DHT22;3281;47.658;9.166;2023-02-20T09:07:10;9.50;1.00
6496;DHT22;3281;47.658;9.166;2023-02-20T09:09:37;9.80;1.00
6496;DHT22;3281;47.658;9.166;2023-02-20T09:12:04;10.00;1.00
6496;DHT22;3281;47.658;9.166;2023-02-20T09:14:33;10.00;1.00
6496;DHT22;3281;47.658;9.166;2023-02-20T09:16:59;10.10;1.00
6496;DHT22;3281;47.658;9.166;2023-02-20T09:19:26;10.30;1.00
6496;DHT22;3281;47.658;9.166;2023-02-20T09:21:53;10.80;1.00
6496;DHT22;3281;47.658;9.166;2023-02-20T09:24:20;11.20;1.00
6496;DHT22;3281;47.658;9.166;2023-02-20T09:26:46;11.50;1.00
6496;DHT22;3281;47.658;9.166;2023-02-20T09:29:13;11.70;1.00
6496;DHT22;3281;47.658;9.166;2023-02-20T09:31:41;11.90;1.00
6496;DHT22;3281;47.658;9.166;2023-02-20T09:34:08;12.30;1.00
6496;DHT22;3281;47.658;9.166;2023-02-20T09:36:35;12.60;1.00
6496;DHT22;3281;47.658;9.166;2023-02-20T09:39:01;13.10;1.00
6496;DHT22;3281;47.658;9.166;2023-02-20T09:41:37;13.40;1.00
6496;DHT22;3281;47.658;9.166;2023-02-20T09:44:11;13.60;1.00
6496;DHT22;3281;47.658;9.166;2023-02-20T09:46:44;14.00;1.00
6496;DHT22;3281;47.658;9.166;2023-02-20T09:49:14;14.50;1.00
6496;DHT22;3281;47.658;9.166;2023-02-20T09:51:44;14.90;1.00
6496;DHT22;3281;47.658;9.166;2023-02-20T09:54:15;15.50;1.00
6496;DHT22;3281;47.658;9.166;2023-02-20T09:56:48;15.30;1.00
6496;DHT22;3281;47.658;9.166;2023-02-20T09:59:16;16.00;1.00
6496;DHT22;3281;47.658;9.166;2023-02-20T10:01:54;15.90;1.00
6496;DHT22;3281;47.658;9.166;2023-02-20T10:04:24;16.10;1.00
6496;DHT22;3281;47.658;9.166;2023-02-20T10:06:56;16.00;1.00
6496;DHT22;3281;47.658;9.166;2023-02-20T10:09:25;16.50;1.00
6496;DHT22;3281;47.658;9.166;2023-02-20T10:11:59;17.20;1.00
6496;DHT22;3281;47.658;9.166;2023-02-20T10:14:50;17.80;1.00
6496;DHT22;3281;47.658;9.166;2023-02-20T10:17:28;18.00;1.00
6496;DHT22;3281;47.658;9.166;2023-02-20T10:20:01;18.30;1.00
6496;DHT22;3281;47.658;9.166;2023-02-20T10:22:32;18.50;1.00
6496;DHT22;3281;47.658;9.166;2023-02-20T10:25:07;18.30;1.00
6496;DHT22;3281;47.658;9.166;2023-02-20T10:27:45;18.80;1.00
6496;DHT22;3281;47.658;9.166;2023-02-20T10:30:22;18.00;1.00
6496;DHT22;3281;47.658;9.166;2023-02-20T10:32:55;17.80;1.00
6496;DHT22;3281;47.658;9.166;2023-02-20T10:35:24;17.80;1.00
6496;DHT22;3281;47.658;9.166;2023-02-20T10:37:55;17.50;1.00
6496;DHT22;3281;47.658;9.166;2023-02-20T10:40:27;17.90;1.00
6496;DHT22;3281;47.658;9.166;2023-02-20T10:42:58;17.80;1.00
6496;DHT22;3281;47.658;9.166;2023-02-20T10:45:36;17.20;1.00
6496;DHT22;3281;47.658;9.166;2023-02-20T10:48:07;16.40;1.00
6496;DHT22;3281;47.658;9.166;2023-02-20T10:50:38;17.00;1.00
6496;DHT22;3281;47.658;9.166;2023-02-20T10:53:13;16.70;1.00
6496;DHT22;3281;47.658;9.166;2023-02-20T10:55:47;16.80;1.00
6496;DHT22;3281;47.658;9.166;2023-02-20T10:58:20;16.20;1.00
6496;DHT22;3281;47.658;9.166;2023-02-20T11:00:51;16.30;1.00
6496;DHT22;3281;47.658;9.166;2023-02-20T11:03:26;16.60;1.00
6496;DHT22;3281;47.658;9.166;2023-02-20T11:05:57;16.30;1.00
6496;DHT22;3281;47.658;9.166;2023-02-20T11:08:27;16.10;1.00
6496;DHT22;3281;47.658;9.166;2023-02-20T11:10:59;15.80;1.00
6496;DHT22;3281;47.658;9.166;2023-02-20T11:13:28;16.00;1.00
6496;DHT22;3281;47.658;9.166;2023-02-20T11:15:55;16.00;1.00
6496;DHT22;3281;47.658;9.166;2023-02-20T11:18:26;15.50;1.00
6496;DHT22;3281;47.658;9.166;2023-02-20T11:20:56;15.30;1.00
6496;DHT22;3281;47.658;9.166;2023-02-20T11:23:41;14.80;1.00
6496;DHT22;3281;47.658;9.166;2023-02-20T11:26:28;14.80;1.00
6496;DHT22;3281;47.658;9.166;2023-02-20T11:28:58;14.60;1.00
6496;DHT22;3281;47.658;9.166;2023-02-20T11:31:25;15.40;1.00
6496;DHT22;3281;47.658;9.166;2023-02-20T11:33:54;16.00;1.00
6496;DHT22;3281;47.658;9.166;2023-02-20T11:36:23;16.00;1.00
6496;DHT22;3281;47.658;9.166;2023-02-20T11:38:57;15.60;1.00
6496;DHT22;3281;47.658;9.166;2023-02-20T11:41:27;15.80;1.00
6496;DHT22;3281;47.658;9.166;2023-02-20T11:44:18;15.30;1.00
6496;DHT22;3281;47.658;9.166;2023-02-20T11:46:46;15.30;1.00
6496;DHT22;3281;47.658;9.166;2023-02-20T11:49:25;15.10;1.00
6496;DHT22;3281;47.658;9.166;2023-02-20T11:52:06;14.80;1.00
6496;DHT22;3281;47.658;9.166;2023-02-20T11:54:33;15.10;1.00
6496;DHT22;3281;47.658;9.166;2023-02-20T11:57:02;15.40;1.00
6496;DHT22;3281;47.658;9.166;2023-02-20T11:59:35;15.80;1.00
6496;DHT22;3281;47.658;9.166;2023-02-20T12:02:26;16.40;1.00
6496;DHT22;3281;47.658;9.166;2023-02-20T12:05:06;17.00;1.00
6496;DHT22;3281;47.658;9.166;2023-02-20T12:07:36;17.70;1.00
6496;DHT22;3281;47.658;9.166;2023-02-20T12:12:54;18.30;1.00
6496;DHT22;3281;47.658;9.166;2023-02-20T12:15:23;18.90;1.00
6496;DHT22;3281;47.658;9.166;2023-02-20T12:18:09;19.20;1.00
6496;DHT22;3281;47.658;9.166;2023-02-20T12:20:44;19.50;1.00
6496;DHT22;3281;47.658;9.166;2023-02-20T12:23:19;20.10;1.00
6496;DHT22;3281;47.658;9.166;2023-02-20T12:25:58;19.60;1.00
6496;DHT22;3281;47.658;9.166;2023-02-20T12:28:37;18.80;1.00
6496;DHT22;3281;47.658;9.166;2023-02-20T12:31:19;18.30;1.00
6496;DHT22;3281;47.658;9.166;2023-02-20T12:34:02;17.70;1.00
6496;DHT22;3281;47.658;9.166;2023-02-20T12:36:36;17.10;1.00
6496;DHT22;3281;47.658;9.166;2023-02-20T12:39:16;16.60;1.00
6496;DHT22;3281;47.658;9.166;2023-02-20T12:41:59;15.70;1.00
6496;DHT22;3281;47.658;9.166;2023-02-20T12:44:42;15.70;1.00
6496;DHT22;3281;47.658;9.166;2023-02-20T12:47:17;15.80;1.00
6496;DHT22;3281;47.658;9.166;2023-02-20T12:50:02;15.70;1.00
6496;DHT22;3281;47.658;9.166;2023-02-20T12:52:51;16.10;1.00
6496;DHT22;3281;47.658;9.166;2023-02-20T12:55:23;16.70;1.00
6496;DHT22;3281;47.658;9.166;2023-02-20T12:58:06;17.20;1.00
6496;DHT22;3281;47.658;9.166;2023-02-20T13:00:41;17.80;1.00
6496;DHT22;3281;47.658;9.166;2023-02-20T13:03:10;18.30;1.00
6496;DHT22;3281;47.658;9.166;2023-02-20T13:05:42;18.80;1.00
6496;DHT22;3281;47.658;9.166;2023-02-20T13:08:13;19.30;1.00
6496;DHT22;3281;47.658;9.166;2023-02-20T13:10:51;19.00;1.00
6496;DHT22;3281;47.658;9.166;2023-02-20T13:13:19;18.90;1.00
6496;DHT22;3281;47.658;9.166;2023-02-20T13:15:52;19.50;1.00
6496;DHT22;3281;47.658;9.166;2023-02-20T13:18:26;20.30;1.00
6496;DHT22;3281;47.658;9.166;2023-02-20T13:20:59;20.20;1.00
6496;DHT22;3281;47.658;9.166;2023-02-20T13:23:32;20.10;1.00
6496;DHT22;3281;47.658;9.166;2023-02-20T13:25:59;19.10;1.00
6496;DHT22;3281;47.658;9.166;2023-02-20T13:28:35;18.30;1.00
6496;DHT22;3281;47.658;9.166;2023-02-20T13:31:16;17.20;1.00
6496;DHT22;3281;47.658;9.166;2023-02-20T13:33:45;17.40;1.00
6496;DHT22;3281;47.658;9.166;2023-02-20T13:36:40;17.40;1.00
6496;DHT22;3281;47.658;9.166;2023-02-20T13:39:34;16.90;1.00
6496;DHT22;3281;47.658;9.166;2023-02-20T13:42:02;17.30;1.00
6496;DHT22;3281;47.658;9.166;2023-02-20T13:44:40;17.50;1.00
6496;DHT22;3281;47.658;9.166;2023-02-20T13:47:37;17.80;1.00
6496;DHT22;3281;47.658;9.166;2023-02-20T13:50:27;18.10;1.00
6496;DHT22;3281;47.658;9.166;2023-02-20T13:52:54;18.90;1.00
6496;DHT22;3281;47.658;9.166;2023-02-20T13:55:25;19.50;1.00
6496;DHT22;3281;47.658;9.166;2023-02-20T13:57:55;19.20;1.00
6496;DHT22;3281;47.658;9.166;2023-02-20T14:00:28;19.80;1.00
6496;DHT22;3281;47.658;9.166;2023-02-20T14:03:00;19.60;1.00
6496;DHT22;3281;47.658;9.166;2023-02-20T14:05:35;19.40;1.00
6496;DHT22;3281;47.658;9.166;2023-02-20T14:08:02;19.40;1.00
6496;DHT22;3281;47.658;9.166;2023-02-20T14:10:31;19.60;1.00
6496;DHT22;3281;47.658;9.166;2023-02-20T14:13:00;19.10;1.00
6496;DHT22;3281;47.658;9.166;2023-02-20T14:15:30;18.80;1.00
6496;DHT22;3281;47.658;9.166;2023-02-20T14:17:57;17.80;1.00
6496;DHT22;3281;47.658;9.166;2023-02-20T14:20:31;16.70;1.00
6496;DHT22;3281;47.658;9.166;2023-02-20T14:23:06;16.20;1.00
6496;DHT22;3281;47.658;9.166;2023-02-20T14:25:34;16.10;1.00
6496;DHT22;3281;47.658;9.166;2023-02-20T14:28:11;16.40;1.00
6496;DHT22;3281;47.658;9.166;2023-02-20T14:30:39;16.40;1.00
6496;DHT22;3281;47.658;9.166;2023-02-20T14:33:25;16.60;1.00
6496;DHT22;3281;47.658;9.166;2023-02-20T14:36:06;17.00;1.00
6496;DHT22;3281;47.658;9.166;2023-02-20T14:38:54;17.10;1.00
6496;DHT22;3281;47.658;9.166;2023-02-20T14:41:24;17.10;1.00
6496;DHT22;3281;47.658;9.166;2023-02-20T14:43:55;17.00;1.00
6496;DHT22;3281;47.658;9.166;2023-02-20T14:46:24;16.90;1.00
6496;DHT22;3281;47.658;9.166;2023-02-20T14:49:03;16.50;1.00
6496;DHT22;3281;47.658;9.166;2023-02-20T14:51:31;16.10;1.00
6496;DHT22;3281;47.658;9.166;2023-02-20T14:53:58;16.00;1.00
6496;DHT22;3281;47.658;9.166;2023-02-20T14:56:27;16.10;1.00
6496;DHT22;3281;47.658;9.166;2023-02-20T14:58:55;16.10;1.00
6496;DHT22;3281;47.658;9.166;2023-02-20T15:01:35;16.30;1.00
6496;DHT22;3281;47.658;9.166;2023-02-20T15:04:09;16.20;1.00
6496;DHT22;3281;47.658;9.166;2023-02-20T15:06:39;16.20;1.00
6496;DHT22;3281;47.658;9.166;2023-02-20T15:09:06;15.90;1.00
6496;DHT22;3281;47.658;9.166;2023-02-20T15:11:36;15.90;1.00
6496;DHT22;3281;47.658;9.166;2023-02-20T15:14:16;15.60;1.00
6496;DHT22;3281;47.658;9.166;2023-02-20T15:16:43;15.30;1.00
6496;DHT22;3281;47.658;9.166;2023-02-20T15:19:19;15.10;1.00
6496;DHT22;3281;47.658;9.166;2023-02-20T15:21:54;14.90;1.00
6496;DHT22;3281;47.658;9.166;2023-02-20T15:24:42;14.60;1.00
6496;DHT22;3281;47.658;9.166;2023-02-20T15:27:13;14.30;1.00
6496;DHT22;3281;47.658;9.166;2023-02-20T15:29:41;14.20;1.00
6496;DHT22;3281;47.658;9.166;2023-02-20T15:32:20;14.00;1.00
6496;DHT22;3281;47.658;9.166;2023-02-20T15:34:50;14.00;1.00
6496;DHT22;3281;47.658;9.166;2023-02-20T15:37:21;13.90;1.00
6496;DHT22;3281;47.658;9.166;2023-02-20T15:39:49;13.80;1.00
6496;DHT22;3281;47.658;9.166;2023-02-20T15:42:20;13.70;1.00
6496;DHT22;3281;47.658;9.166;2023-02-20T15:44:47;13.60;1.00
6496;DHT22;3281;47.658;9.166;2023-02-20T15:47:14;13.60;1.00
6496;DHT22;3281;47.658;9.166;2023-02-20T15:49:41;13.50;1.00
6496;DHT22;3281;47.658;9.166;2023-02-20T15:52:14;13.50;1.00
6496;DHT22;3281;47.658;9.166;2023-02-20T15:54:44;13.40;1.00
6496;DHT22;3281;47.658;9.166;2023-02-20T15:57:15;13.20;1.00
6496;DHT22;3281;47.658;9.166;2023-02-20T15:59:44;13.10;1.00
6496;DHT22;3281;47.658;9.166;2023-02-20T16:02:14;13.10;1.00
6496;DHT22;3281;47.658;9.166;2023-02-20T16:04:44;12.90;1.00
6496;DHT22;3281;47.658;9.166;2023-02-20T16:07:10;12.80;1.00
6496;DHT22;3281;47.658;9.166;2023-02-20T16:09:37;12.80;1.00
6496;DHT22;3281;47.658;9.166;2023-02-20T16:12:04;12.80;1.00
6496;DHT22;3281;47.658;9.166;2023-02-20T16:14:31;12.70;1.00
6496;DHT22;3281;47.658;9.166;2023-02-20T16:16:59;12.60;1.00
6496;DHT22;3281;47.658;9.166;2023-02-20T16:19:26;12.40;1.00
6496;DHT22;3281;47.658;9.166;2023-02-20T16:21:54;12.40;1.00
6496;DHT22;3281;47.658;9.166;2023-02-20T16:24:22;12.40;1.00
6496;DHT22;3281;47.658;9.166;2023-02-20T16:26:48;12.30;1.00
6496;DHT22;3281;47.658;9.166;2023-02-20T16:29:18;12.10;1.00
6496;DHT22;3281;47.658;9.166;2023-02-20T16:32:14;12.00;1.00
6496;DHT22;3281;47.658;9.166;2023-02-20T16:34:41;11.80;1.00
6496;DHT22;3281;47.658;9.166;2023-02-20T16:37:09;11.80;1.00
6496;DHT22;3281;47.658;9.166;2023-02-20T16:39:36;11.60;1.00
6496;DHT22;3281;47.658;9.166;2023-02-20T16:42:16;11.50;1.00
6496;DHT22;3281;47.658;9.166;2023-02-20T16:44:44;11.20;1.00
6496;DHT22;3281;47.658;9.166;2023-02-20T16:47:13;11.20;1.00
6496;DHT22;3281;47.658;9.166;2023-02-20T16:49:40;10.90;1.00
6496;DHT22;3281;47.658;9.166;2023-02-20T16:52:12;10.80;1.00
6496;DHT22;3281;47.658;9.166;2023-02-20T16:54:42;10.70;1.00
6496;DHT22;3281;47.658;9.166;2023-02-20T16:57:09;10.60;1.00
6496;DHT22;3281;47.658;9.166;2023-02-20T16:59:35;10.50;1.00
6496;DHT22;3281;47.658;9.166;2023-02-20T17:02:02;10.40;1.00
6496;DHT22;3281;47.658;9.166;2023-02-20T17:04:30;10.40;1.00